Latest Coastal Weather Observations for Redcliffe

IDQ60701

Issued at 11:31 pm EST Wednesday 29 July 2015 (issued every 10 minutes, with the page automatically refreshed every 10 minutes)

About coastal observations | Map of coastal stations | Coastal observations for QLD | Marine services | Other Formats
Station Details ID: 040958 Name: REDCLIFFE Lat: -27.22 Lon: 153.09 Height: 12.6 m
Data from the previous 72 hours. | See also: Recent months at Redcliffe
Date/Time
EST
Temp

°C
Wind Pressure Rain
since 9am
mm
Weather Cloud Vis
km
Sea
Height
m
Swell
Dir
 
Speed
knots
Gust
knots
hPa Trend Height
m
Period
s
Dir
29/11:30pm 10.9 SW 9 10 1029.7 - 0.0 - - - - - - -
29/11:00pm 11.2 SW 7 9 1029.5 - 0.0 - - - - - - -
29/10:30pm 11.4 WSW 8 9 1029.6 - 0.0 - - - - - - -
29/10:00pm 11.7 WSW 8 10 1029.6 - 0.0 - - - - - - -
29/09:30pm 12.1 WSW 6 7 1029.4 - 0.0 - - - - - - -
29/09:00pm 12.9 WSW 5 6 1029.5 - 0.0 - - - - - - -
29/08:30pm 13.0 SW 5 7 1029.6 - 0.0 - - - - - - -
29/08:00pm 14.2 S 4 5 1029.6 - 0.0 - - - - - - -
29/07:30pm 15.3 SE 6 7 1029.5 - 0.0 - - - - - - -
29/07:00pm 16.0 SE 8 9 1029.2 - 0.0 - - - - - - -
29/06:30pm 16.3 ESE 8 10 1028.9 - 0.0 - - - - - - -
29/06:00pm 16.6 ESE 9 10 1028.7 - 0.0 - - - - - - -
29/05:30pm 16.7 ESE 9 10 1028.4 - 0.0 - - - - - - -
29/05:00pm 17.3 ESE 7 8 1028.3 - 0.0 - - - - - - -
29/04:30pm 17.6 ESE 8 9 1028.1 - 0.0 - - - - - - -
29/04:00pm 18.0 ESE 8 9 1027.9 - 0.0 - - - - - - -
29/03:30pm 18.2 ESE 9 11 1027.9 - 0.0 - - - - - - -
29/03:00pm 18.3 ESE 9 12 1028.1 - 0.0 - - - - - - -
29/02:30pm 18.8 ESE 7 9 1028.3 - 0.0 - - - - - - -
29/02:00pm 18.7 SE 9 10 1028.4 - 0.0 - - - - - - -
29/01:30pm 19.0 SE 6 7 1028.7 - 0.0 - - - - - - -
29/01:00pm 19.2 SE 7 8 1029.0 - 0.0 - - - - - - -
29/12:30pm 19.3 SE 7 8 1029.6 - 0.0 - - - - - - -
29/12:00pm 18.7 S 9 11 1029.8 - 0.0 - - - - - - -
29/11:30am 18.5 S 11 13 1030.6 - 0.0 - - - - - - -
29/11:00am 18.2 S 12 16 1031.1 - 0.0 - - - - - - -
29/10:30am 17.7 S 10 14 1031.4 - 0.0 - - - - - - -
29/10:00am 17.1 SSW 11 17 1031.6 - 0.0 - - - - - - -
29/09:30am 16.6 SSW 10 15 1031.9 - 0.0 - - - - - - -
29/09:00am 14.8 SSW 9 14 1031.8 - 0.0 - - - - - - -
29/08:30am 13.5 SW 9 11 1031.9 - 0.0 - - - - - - -
29/08:00am 12.5 SW 8 11 1032.0 - 0.0 - - - - - - -
29/07:30am 11.2 SW 7 9 1031.8 - 0.0 - - - - - - -
29/07:00am 9.9 SW 8 9 1031.6 - 0.0 - - - - - - -
29/06:30am 9.4 SW 8 11 1030.9 - 0.0 - - - - - - -
29/06:00am 9.7 SW 8 12 1030.6 - 0.0 - - - - - - -
29/05:30am 9.7 SW 9 13 1030.2 - 0.0 - - - - - - -
29/05:00am 9.7 SW 7 10 1029.8 - 0.0 - - - - - - -
29/04:30am 9.7 SW 9 12 1029.8 - 0.0 - - - - - - -
29/04:00am 9.9 SW 8 10 1029.9 - 0.0 - - - - - - -
29/03:30am 10.0 SW 8 10 1030.1 - 0.0 - - - - - - -
29/03:00am 9.9 SW 8 10 1030.2 - 0.0 - - - - - - -
29/02:30am 9.8 SW 7 9 1030.3 - 0.0 - - - - - - -
29/02:00am 10.1 SW 8 10 1030.2 - 0.0 - - - - - - -
29/01:30am 10.4 SW 7 9 1030.4 - 0.0 - - - - - - -
29/01:00am 10.8 SW 8 10 1030.4 - 0.0 - - - - - - -
29/12:30am 11.0 SW 7 9 1030.6 - 0.0 - - - - - - -
29/12:00am 11.2 SW 6 8 1030.6 - 0.0 - - - - - - -
 
Date/Time
EST
Temp

°C
Wind Pressure Rain
since 9am
mm
Weather Cloud Vis
km
Sea
Height
m
Swell
Dir
 
Speed
knots
Gust
knots
hPa Trend Height
m
Period
s
Dir
28/11:30pm 11.4 SSW 7 8 1030.7 - 0.0 - - - - - - -
28/11:00pm 12.4 SSW 7 9 1030.8 - 0.0 - - - - - - -
28/10:30pm 13.4 S 9 13 1030.9 - 0.0 - - - - - - -
28/10:00pm 13.6 SSW 9 13 1030.8 - 0.0 - - - - - - -
28/09:30pm 13.8 SSW 9 12 1030.8 - 0.0 - - - - - - -
28/09:00pm 14.8 S 12 17 1030.8 - 0.0 - - - - - - -
28/08:30pm 15.9 SSE 15 16 1030.5 - 0.0 - - - - - - -
28/08:00pm 16.0 SSE 15 17 1030.4 - 0.0 - - - - - - -
28/07:30pm 16.3 SE 15 17 1030.2 - 0.0 - - - - - - -
28/07:00pm 16.4 SE 15 16 1029.9 - 0.0 - - - - - - -
28/06:30pm 16.4 SE 15 18 1029.7 - 0.0 - - - - - - -
28/06:00pm 16.5 SE 15 17 1029.2 - 0.0 - - - - - - -
28/05:30pm 16.5 SE 17 19 1028.8 - 0.0 - - - - - - -
28/05:00pm 16.7 SE 17 20 1028.5 - 0.0 - - - - - - -
28/04:30pm 17.1 SE 17 20 1028.3 - 0.0 - - - - - - -
28/04:00pm 17.4 SE 14 16 1028.2 - 0.0 - - - - - - -
28/03:30pm 17.6 SE 12 15 1028.0 - 0.0 - - - - - - -
28/03:00pm 17.9 ESE 13 16 1027.9 - 0.0 - - - - - - -
28/02:30pm 18.0 ESE 13 15 1027.9 - 0.0 - - - - - - -
28/02:00pm 17.7 SE 14 16 1028.0 - 0.0 - - - - - - -
28/01:30pm 17.9 SE 15 16 1028.2 - 0.0 - - - - - - -
28/01:00pm 18.2 SE 17 18 1028.5 - 0.0 - - - - - - -
28/12:30pm 17.9 SSE 16 18 1028.7 - 0.0 - - - - - - -
28/12:00pm 17.9 SSE 16 18 1028.8 - 0.0 - - - - - - -
28/11:30am 18.3 S 12 14 1029.3 - 0.0 - - - - - - -
28/11:00am 17.6 S 14 16 1029.6 - 0.0 - - - - - - -
28/10:30am 17.4 S 13 16 1030.0 - 0.0 - - - - - - -
28/10:00am 17.0 S 11 15 1030.1 - 0.0 - - - - - - -
28/09:30am 16.4 SSW 11 15 1030.0 - 0.0 - - - - - - -
28/09:00am 15.7 SSW 10 14 1029.8 - 0.0 - - - - - - -
28/08:30am 14.7 SSW 10 15 1029.6 - 0.0 - - - - - - -
28/08:00am 13.6 SSW 7 10 1029.4 - 0.0 - - - - - - -
28/07:30am 12.5 SSW 9 13 1029.1 - 0.0 - - - - - - -
28/07:00am 11.8 SSW 6 8 1028.6 - 0.0 - - - - - - -
28/06:30am 11.0 SW 8 12 1028.2 - 0.0 - - - - - - -
28/06:00am 11.1 SSW 5 7 1027.9 - 0.0 - - - - - - -
28/05:30am 11.5 SSW 6 10 1027.6 - 0.0 - - - - - - -
28/05:00am 12.0 SW 7 10 1027.3 - 0.0 - - - - - - -
28/04:30am 12.0 SW 7 9 1027.0 - 0.0 - - - - - - -
28/04:00am 11.9 WSW 9 10 1027.0 - 0.0 - - - - - - -
28/03:30am 11.8 WSW 7 9 1026.6 - 0.0 - - - - - - -
28/03:00am 11.8 WSW 8 10 1026.6 - 0.0 - - - - - - -
28/02:30am 11.7 WSW 8 10 1026.6 - 0.0 - - - - - - -
28/02:00am 11.4 WSW 7 9 1026.7 - 0.0 - - - - - - -
28/01:30am 11.6 W 7 9 1026.8 - 0.0 - - - - - - -
28/01:00am 11.8 W 5 7 1026.8 - 0.0 - - - - - - -
28/12:30am 12.2 WNW 7 9 1026.8 - 0.0 - - - - - - -
28/12:00am 12.6 W 6 8 1026.6 - 0.0 - - - - - - -
 
Date/Time
EST
Temp

°C
Wind Pressure Rain
since 9am
mm
Weather Cloud Vis
km
Sea
Height
m
Swell
Dir
 
Speed
knots
Gust
knots
hPa Trend Height
m
Period
s
Dir
27/11:30pm 13.1 W 7 10 1026.6 - 0.0 - - - - - - -
27/11:00pm 13.4 W 7 10 1026.7 - 0.0 - - - - - - -
27/10:30pm 13.9 WSW 5 8 1026.7 - 0.0 - - - - - - -
27/10:00pm 14.4 SW 6 8 1026.4 - 0.0 - - - - - - -
27/09:30pm 15.0 SSW 6 9 1026.1 - 0.0 - - - - - - -
27/09:00pm 15.4 SW 7 10 1025.8 - 0.0 - - - - - - -
27/08:30pm 15.9 SSW 8 11 1025.8 - 0.0 - - - - - - -
27/08:00pm 15.9 SSW 7 11 1025.4 - 0.0 - - - - - - -
27/07:30pm 16.8 SSW 6 7 1025.1 - 0.0 - - - - - - -
27/07:00pm 17.4 SSW 5 7 1024.8 - 0.0 - - - - - - -
27/06:30pm 17.4 S 7 9 1024.2 - 0.0 - - - - - - -
27/06:00pm 18.0 SW 7 10 1023.6 - 0.0 - - - - - - -
27/05:30pm 18.4 W 8 12 1023.4 - 0.0 - - - - - - -
27/05:00pm 18.9 WSW 10 15 1023.0 - 0.0 - - - - - - -
27/04:30pm 20.1 WSW 11 16 1022.5 - 0.0 - - - - - - -
27/04:00pm 20.4 WSW 9 13 1022.1 - 0.0 - - - - - - -
27/03:30pm 21.1 WSW 12 15 1021.9 - 0.0 - - - - - - -
27/03:00pm 21.4 WSW 10 15 1021.7 - 0.0 - - - - - - -
27/02:30pm 21.3 W 12 16 1021.8 - 0.0 - - - - - - -
27/02:00pm 21.6 WSW 9 14 1021.7 - 0.0 - - - - - - -
27/01:30pm 21.4 WSW 10 15 1021.8 - 0.0 - - - - - - -
27/01:00pm 21.4 WSW 9 13 1021.9 - 0.0 - - - - - - -
27/12:30pm 21.3 WSW 10 16 1022.5 - 0.0 - - - - - - -
27/12:00pm 21.8 WSW 9 15 1023.0 - 0.0 - - - - - - -
27/11:30am 20.8 WSW 9 13 1023.4 - 0.0 - - - - - - -
27/11:00am 20.5 SW 9 16 1023.8 - 0.0 - - - - - - -
27/10:30am 19.8 SW 11 15 1024.1 - 0.0 - - - - - - -
27/10:00am 19.7 SW 8 12 1024.3 - 0.0 - - - - - - -
27/09:30am 18.7 WSW 9 12 1024.4 - 0.0 - - - - - - -
27/09:00am 18.4 WSW 9 14 1024.6 - 0.0 - - - - - - -
27/08:30am 17.7 W 7 13 1024.3 - 0.0 - - - - - - -
27/08:00am 16.9 W 7 11 1023.9 - 0.0 - - - - - - -
27/07:30am 15.6 W 7 12 1023.8 - 0.0 - - - - - - -
27/07:00am 15.2 W 7 10 1023.6 - 0.0 - - - - - - -
27/06:30am 14.9 W 7 10 1023.3 - 0.0 - - - - - - -
27/06:00am 15.0 WSW 8 11 1022.9 - 0.0 - - - - - - -
27/05:30am 15.4 WSW 7 10 1022.6 - 0.0 - - - - - - -
27/05:00am 15.5 WSW 7 8 1022.2 - 0.0 - - - - - - -
27/04:30am 15.1 W 7 8 1021.9 - 0.0 - - - - - - -
27/04:00am 15.7 W 7 10 1021.8 - 0.0 - - - - - - -
27/03:30am 15.9 W 6 7 1021.7 - 0.0 - - - - - - -
27/03:00am 15.7 W 6 7 1021.6 - 0.0 - - - - - - -
27/02:30am 16.2 WNW 8 11 1021.5 - 0.0 - - - - - - -
27/02:00am 17.6 WNW 9 13 1021.5 - 0.0 - - - - - - -
27/01:30am 17.6 WNW 9 11 1021.7 - 0.0 - - - - - - -
27/01:00am 17.2 W 9 14 1021.8 - 0.0 - - - - - - -
27/12:30am 16.7 WSW 9 13 1021.6 - 0.0 - - - - - - -
27/12:00am 16.7 WSW 6 8 1021.7 - 0.0 - - - - - - -

Other Formats:

Comma delimited format used in spreadsheet applications
http://www.bom.gov.au/fwo/IDQ60701/IDQ60701.95591.axf

JavaScript Object Notation format (JSON) in row-major order
http://www.bom.gov.au/fwo/IDQ60701/IDQ60701.95591.json